| time (UTC) | temp F | wind direction | speed MPH | gust MPH | rain 1hr in | rain 24hr in | rain mn in | humidity % | barometer mb |
| 20260502163024 | 63 | 304 | 3.0 | 11.0 | 0.00 | 0.00 | 0.00 | 27 | 1011.3 |
| 20260502161515 | 61 | 192 | 2.0 | 9.0 | 0.00 | 0.00 | 0.00 | 30 | 1011.2 |
| 20260502151508 | 58 | 163 | 6.0 | 12.0 | 0.00 | 0.00 | 0.00 | 33 | 1011.8 |
| 20260502123027 | 41 | 185 | 8.0 | 11.0 | 0.00 | 0.00 | 0.00 | 49 | 1014.2 |
| 20260502121527 | 39 | 183 | 9.0 | 12.0 | 0.00 | 0.00 | 0.00 | 50 | 1014.3 |
| 20260502114525 | 37 | 171 | 8.0 | 11.0 | 0.00 | 0.00 | 0.00 | 50 | 1014.3 |
| 20260502113024 | 37 | 197 | 7.0 | 10.0 | 0.00 | 0.00 | 0.00 | 50 | 1014.5 |
| 20260502111522 | 36 | 193 | 6.0 | 10.0 | 0.00 | 0.00 | 0.00 | 50 | 1014.7 |
| 20260502110024 | 34 | 161 | 6.0 | 9.0 | 0.00 | 0.00 | 0.00 | 52 | 1014.9 |
| 20260502104518 | 33 | 150 | 4.0 | 7.0 | 0.00 | 0.00 | 0.00 | 51 | 1015.1 |
| 20260502103017 | 34 | 139 | 4.0 | 7.0 | 0.00 | 0.00 | 0.00 | 50 | 1015.2 |
| 20260502101516 | 34 | 132 | 5.0 | 8.0 | 0.00 | 0.00 | 0.00 | 50 | 1015.4 |
| 20260502091505 | 37 | 140 | 6.0 | 9.0 | 0.00 | 0.00 | 0.00 | 43 | 1016.3 |
| 20260502080104 | 39 | 175 | 9.0 | 12.0 | 0.00 | 0.00 | 0.00 | 42 | 1017.6 |
| 20260502070051 | 39 | 190 | 6.0 | 9.0 | 0.00 | 0.00 | 0.00 | 39 | 1018.5 |
| 20260502064545 | 39 | 180 | 5.0 | 8.0 | 0.00 | 0.00 | 0.00 | 39 | 1018.5 |
| 20260502063040 | 38 | 192 | 5.0 | 8.0 | 0.00 | 0.00 | 0.00 | 39 | 1018.8 |
| 20260502061537 | 38 | 181 | 2.0 | 5.0 | 0.00 | 0.00 | 0.00 | 38 | 1018.8 |
| 20260502060034 | 37 | 151 | 1.0 | 5.0 | 0.00 | 0.00 | 0.00 | 38 | 1019.0 |
| 20260502054536 | 38 | 150 | 1.0 | 5.0 | 0.00 | 0.00 | 0.00 | 37 | 1019.0 |
| 20260502053032 | 39 | 146 | 2.0 | 4.0 | 0.00 | 0.00 | 0.00 | 36 | 1019.1 |
| 20260502051534 | 38 | 144 | 2.0 | 3.0 | 0.00 | 0.00 | 0.00 | 35 | 1019.1 |
| 20260502050029 | 39 | 144 | 1.0 | 2.0 | 0.00 | 0.00 | 0.00 | 35 | 1019.1 |
| 20260502044529 | 40 | 144 | 1.0 | 4.0 | 0.00 | 0.00 | 0.00 | 35 | 1019.1 |
| 20260502043028 | 40 | 143 | 0.0 | 2.0 | 0.00 | 0.00 | 0.00 | 32 | 1019.2 |
| 20260502041531 | 42 | 143 | 0.0 | 2.0 | 0.00 | 0.00 | 0.00 | 31 | 1019.4 |
| 20260502040037 | 41 | 142 | 1.0 | 3.0 | 0.00 | 0.00 | 0.00 | 31 | 1019.5 |
| 20260502034525 | 41 | 142 | 1.0 | 3.0 | 0.00 | 0.00 | 0.00 | 29 | 1019.6 |
| 20260502033025 | 42 | 139 | 3.0 | 5.0 | 0.00 | 0.00 | 0.00 | 27 | 1019.6 |
| 20260502031525 | 44 | 130 | 3.0 | 6.0 | 0.00 | 0.00 | 0.00 | 27 | 1019.6 |
| 20260502030024 | 45 | 126 | 4.0 | 6.0 | 0.00 | 0.00 | 0.00 | 26 | 1019.6 |
| 20260502024537 | 47 | 103 | 4.0 | 6.0 | 0.00 | 0.00 | 0.00 | 24 | 1019.6 |
| 20260502023024 | 45 | 90 | 3.0 | 6.0 | 0.00 | 0.00 | 0.00 | 26 | 1019.6 |
| 20260502021523 | 47 | 82 | 2.0 | 4.0 | 0.00 | 0.00 | 0.00 | 22 | 1019.5 |
| 20260502020023 | 49 | 74 | 4.0 | 5.0 | 0.00 | 0.00 | 0.00 | 21 | 1019.6 |
| 20260502014533 | 52 | 19 | 3.0 | 4.0 | 0.00 | 0.00 | 0.00 | 21 | 1019.6 |
| 20260502013022 | 53 | 5 | 1.0 | 3.0 | 0.00 | 0.00 | 0.00 | 20 | 1019.7 |
| 20260502011522 | 54 | 5 | 0.0 | 1.0 | 0.00 | 0.00 | 0.00 | 20 | 1019.8 |
| 20260502010021 | 55 | 5 | 0.0 | 3.0 | 0.00 | 0.00 | 0.00 | 19 | 1019.8 |
| 20260502004520 | 55 | 5 | 2.0 | 3.0 | 0.00 | 0.00 | 0.00 | 19 | 1020.0 |
| 20260502003021 | 56 | 5 | 0.0 | 5.0 | 0.00 | 0.00 | 0.00 | 18 | 1020.0 |
| 20260502001521 | 56 | 296 | 3.0 | 9.0 | 0.00 | 0.00 | 0.00 | 18 | 1020.1 |
| 20260502000017 | 56 | 283 | 2.0 | 8.0 | 0.00 | 0.00 | 0.00 | 17 | 1020.2 |
| 20260501234515 | 56 | 16 | 4.0 | 11.0 | 0.00 | 0.00 | 0.00 | 17 | 1020.3 |
| 20260501233015 | 57 | 279 | 5.0 | 9.0 | 0.00 | 0.00 | 0.00 | 17 | 1020.5 |
| 20260501231518 | 57 | 332 | 2.0 | 7.0 | 0.00 | 0.00 | 0.00 | 17 | 1020.6 |
| 20260501230011 | 56 | 302 | 3.0 | 7.0 | 0.00 | 0.00 | 0.00 | 18 | 1020.6 |
| 20260501224514 | 57 | 21 | 3.0 | 8.0 | 0.00 | 0.00 | 0.00 | 17 | 1020.7 |
| 20260501223010 | 56 | 40 | 2.0 | 5.0 | 0.00 | 0.00 | 0.00 | 18 | 1020.7 |
| 20260501221509 | 56 | 320 | 5.0 | 9.0 | 0.00 | 0.00 | 0.00 | 18 | 1020.9 |
| 20260501220010 | 56 | 291 | 3.0 | 11.0 | 0.00 | 0.00 | 0.00 | 19 | 1020.9 |
| 20260501214507 | 56 | 9 | 7.0 | 12.0 | 0.00 | 0.00 | 0.00 | 18 | 1021.1 |
| 20260501213005 | 55 | 34 | 0.0 | 11.0 | 0.00 | 0.00 | 0.00 | 20 | 1021.2 |
| 20260501211503 | 55 | 27 | 8.0 | 11.0 | 0.00 | 0.00 | 0.00 | 18 | 1021.3 |
| 20260501210003 | 55 | 80 | 3.0 | 10.0 | 0.00 | 0.00 | 0.00 | 18 | 1021.4 |
| 20260501204559 | 54 | 178 | 5.0 | 12.0 | 0.00 | 0.00 | 0.00 | 20 | 1021.5 |
| 20260501203107 | 54 | 184 | 5.0 | 11.0 | 0.00 | 0.00 | 0.00 | 20 | 1021.6 |
| 20260501201559 | 54 | 266 | 6.0 | 11.0 | 0.00 | 0.00 | 0.00 | 20 | 1021.8 |
| 20260501200056 | 53 | 296 | 8.0 | 10.0 | 0.00 | 0.00 | 0.00 | 21 | 1021.9 |
| 20260501194556 | 54 | 355 | 8.0 | 28.0 | 0.00 | 0.00 | 0.00 | 22 | 1022.0 |
| 20260501193054 | 53 | 61 | 6.0 | 13.0 | 0.00 | 0.00 | 0.00 | 22 | 1022.1 |
| 20260501191551 | 52 | 57 | 7.0 | 16.0 | 0.00 | 0.00 | 0.00 | 24 | 1022.2 |
| 20260501190050 | 52 | 142 | 7.0 | 12.0 | 0.00 | 0.00 | 0.00 | 25 | 1022.2 |
| 20260501184605 | 51 | 190 | 3.0 | 8.0 | 0.00 | 0.00 | 0.00 | 25 | 1022.5 |
| 20260501183055 | 50 | 73 | 4.0 | 6.0 | 0.00 | 0.00 | 0.00 | 26 | 1022.7 |
| 20260501181546 | 50 | 77 | 7.0 | 12.0 | 0.00 | 0.00 | 0.00 | 26 | 1022.8 |
| 20260501180044 | 49 | 32 | 2.0 | 6.0 | 0.00 | 0.00 | 0.00 | 28 | 1023.0 |
| 20260501174550 | 48 | 355 | 7.0 | 12.0 | 0.00 | 0.00 | 0.00 | 29 | 1023.1 |
| 20260501173048 | 48 | 45 | 4.0 | 10.0 | 0.00 | 0.00 | 0.00 | 30 | 1023.1 |